Lijing, China
Current Conditions -  °F | °C
As of 5:00 PM on Thursday 18 Dec 2014 (Local Time) from ZPPP Reporting Station
Rain Showers Rain Showers  
Wind Chill: 33°   Ceiling: 3000
Heat Index: 39°   Visibility: 1.8mi
Dew Point: 39°   Wind: 9mph
Humidity: 100%   Direction: 220°SW
Pressure: 30.24"   Gusts: NA
Location:  26.83°N, 100.47°E
Report Text: ZPPP 180900Z 22004MPS 3000 -SHRA BR SCT010 FEW016TCUSCT016OVC030 04/04 Q1024 NOSIG
Loading
Personal Weather Stations






























Interactive Weather Map New forecast layout! Learn more

10-Day Weather Forecast

Advertisements
Track Severe Weather on mobile